Sunset Acres, Arizona
Current Conditions -  °F | °C
As of 1:56 PM on Thursday 23 Oct 2014 (Local Time) from KDUG Reporting Station
Clear Clear  
Wind Chill: 81°   Ceiling: Unl
Heat Index: 81°   Visibility: 10mi
Dew Point: 46°   Wind: 5mph
Humidity: 29%   Direction: NA
Pressure: 30.13"   Gusts: NA
Location:  31.4799°N, 109.96°W
Report Text: KDUG 232056Z AUTO VRB04KT 10SM CLR 27/08 A3013 RMK AO2 SLP145 T02720078 56023
Loading
Personal Weather Stations






























Interactive Weather Map
Tropical Storm Tracking
New forecast layout! Learn more

10-Day Weather Forecast

Advertisements
Track Severe Weather on mobile